Time;durP1;ratioP1;P1;durP2;ratioP2;P2;SDS_P1;SDS_P2;PMS_P1;PMS_P2;Temp;Humidity;BMP_temperature;BMP_pressure;BME280_temperature;BME280_humidity;BME280_pressure;Samples;Min_cycle;Max_cycle;Signal;HPM_P1;HPM_P2
2021/11/19 00:02:07;;;;;;;12.80;5.45;;;;;;;10.55;100.00;102888.41;5025824;28;20384;-71
2021/11/19 00:04:36;;;;;;;13.55;6.00;;;;;;;10.57;100.00;102893.75;5022312;28;20093;-68
2021/11/19 00:07:05;;;;;;;14.68;6.32;;;;;;;10.61;100.00;102888.44;5027086;28;20079;-71
2021/11/19 00:09:33;;;;;;;12.05;5.78;;;;;;;10.59;100.00;102894.66;5023243;28;20049;-71
2021/11/19 00:12:03;;;;;;;14.13;6.53;;;;;;;10.63;100.00;102891.09;5024255;28;20060;-71
2021/11/19 00:14:33;;;;;;;12.65;6.13;;;;;;;10.63;100.00;102891.09;5025806;28;20105;-71
2021/11/19 00:17:07;;;;;;;15.82;6.55;;;;;;;10.63;100.00;102897.34;5028447;28;20053;-71
2021/11/19 00:19:37;;;;;;;19.55;6.13;;;;;;;10.68;100.00;102897.34;5023577;28;20543;-70
2021/11/19 00:22:07;;;;;;;17.05;6.53;;;;;;;10.65;100.00;102902.66;5027337;28;20083;-71
2021/11/19 00:24:35;;;;;;;16.73;7.10;;;;;;;10.67;100.00;102900.00;5025317;28;20140;-71
2021/11/19 00:27:04;;;;;;;12.98;5.90;;;;;;;10.69;100.00;102895.53;5022798;28;20053;-71
2021/11/19 00:29:33;;;;;;;15.57;6.43;;;;;;;10.71;100.00;102899.09;5026696;28;20067;-71
2021/11/19 00:32:02;;;;;;;12.50;5.78;;;;;;;10.69;100.00;102906.22;5022484;28;23940;-71
2021/11/19 00:34:33;;;;;;;14.85;6.28;;;;;;;10.64;100.00;102909.81;5029540;28;20404;-71
2021/11/19 00:37:01;;;;;;;15.43;7.07;;;;;;;10.71;100.00;102907.13;5030105;28;20250;-70
2021/11/19 00:39:29;;;;;;;13.10;6.25;;;;;;;10.70;100.00;102914.25;5025037;28;20080;-71
2021/11/19 00:41:58;;;;;;;15.02;6.72;;;;;;;10.68;100.00;102918.69;5024663;28;20059;-68
2021/11/19 00:44:27;;;;;;;12.93;7.07;;;;;;;10.67;100.00;102905.34;5022858;28;20497;-68
2021/11/19 00:46:56;;;;;;;16.02;7.53;;;;;;;10.70;100.00;102905.34;5025778;28;20170;-68
2021/11/19 00:49:31;;;;;;;15.10;7.13;;;;;;;10.72;100.00;102892.88;5023406;28;20539;-68
2021/11/19 00:52:02;;;;;;;15.45;7.55;;;;;;;10.72;100.00;102901.78;5025476;28;20080;-68
2021/11/19 00:54:30;;;;;;;11.70;6.28;;;;;;;10.72;100.00;102898.22;5025329;28;20656;-68
2021/11/19 00:57:01;;;;;;;18.10;7.45;;;;;;;10.73;100.00;102905.34;5022697;28;20453;-68
2021/11/19 00:59:31;;;;;;;14.68;7.80;;;;;;;10.71;100.00;102902.69;5026604;28;20060;-68
2021/11/19 01:02:02;;;;;;;20.73;8.38;;;;;;;10.69;100.00;102911.56;5026396;28;20052;-67
2021/11/19 01:04:31;;;;;;;18.42;8.35;;;;;;;10.66;100.00;102917.81;5026343;28;20056;-68
2021/11/19 01:07:01;;;;;;;17.85;8.80;;;;;;;10.67;100.00;102903.56;5023396;28;20057;-68
2021/11/19 01:09:32;;;;;;;19.17;8.65;;;;;;;10.64;100.00;102907.13;5019774;28;20064;-68
2021/11/19 01:12:02;;;;;;;18.80;9.07;;;;;;;10.68;100.00;102894.66;5021168;28;20057;-67
2021/11/19 01:14:35;;;;;;;18.15;9.65;;;;;;;10.68;100.00;102892.00;5027230;28;20519;-69
2021/11/19 01:17:06;;;;;;;19.23;8.25;;;;;;;10.71;100.00;102892.00;5027315;28;20099;-71
2021/11/19 01:19:42;;;;;;;18.77;8.75;;;;;;;10.67;100.00;102892.00;5021192;28;20061;-71
2021/11/19 01:22:15;;;;;;;21.60;9.35;;;;;;;10.72;100.00;102895.56;5029176;28;20576;-71
2021/11/19 01:24:43;;;;;;;18.48;8.57;;;;;;;10.67;100.00;102895.53;5026334;28;20051;-71
2021/11/19 01:27:12;;;;;;;19.77;9.07;;;;;;;10.68;100.00;102897.34;5019378;28;20054;-72
2021/11/19 01:29:40;;;;;;;15.52;8.75;;;;;;;10.73;100.00;102894.69;5021836;28;20057;-69
2021/11/19 01:32:12;;;;;;;16.77;8.93;;;;;;;10.73;100.00;102895.56;5022826;28;20988;-72
2021/11/19 01:34:41;;;;;;;19.90;8.77;;;;;;;10.72;100.00;102887.53;5023926;28;20076;-67
2021/11/19 01:37:10;;;;;;;18.63;8.52;;;;;;;10.70;100.00;102895.56;5024318;28;20048;-68
2021/11/19 01:39:40;;;;;;;16.23;7.28;;;;;;;10.67;100.00;102898.22;5026395;28;20144;-68
2021/11/19 01:42:22;;;;;;;17.05;8.23;;;;;;;10.68;100.00;102894.66;5021035;28;20490;-68
2021/11/19 01:45:04;;;;;;;17.45;7.80;;;;;;;10.70;100.00;102892.88;5025617;28;20052;-69
2021/11/19 01:47:35;;;;;;;14.88;8.15;;;;;;;10.67;100.00;102889.31;5024596;28;20048;-68
2021/11/19 01:50:08;;;;;;;16.25;7.75;;;;;;;10.69;100.00;102883.06;5026257;28;20050;-68
2021/11/19 01:52:42;;;;;;;15.77;7.72;;;;;;;10.69;100.00;102883.06;5016360;28;20060;-70
2021/11/19 01:55:16;;;;;;;17.45;7.95;;;;;;;10.68;100.00;102889.31;5025450;28;20045;-71
2021/11/19 01:57:49;;;;;;;13.65;7.43;;;;;;;10.71;100.00;102886.66;5025427;28;20130;-71
2021/11/19 02:00:22;;;;;;;15.43;7.57;;;;;;;10.75;100.00;102896.44;5022229;28;20057;-71
2021/11/19 02:02:54;;;;;;;13.87;7.73;;;;;;;10.74;100.00;102897.31;5023267;28;20091;-70
2021/11/19 02:05:26;;;;;;;18.80;8.13;;;;;;;10.73;100.00;102892.00;5022870;28;20493;-71
2021/11/19 02:07:58;;;;;;;15.85;7.80;;;;;;;10.74;100.00;102893.78;5025802;28;20094;-71
2021/11/19 02:10:33;;;;;;;16.88;8.25;;;;;;;10.73;100.00;102897.34;5020330;28;20060;-71
2021/11/19 02:13:08;;;;;;;17.50;8.45;;;;;;;10.71;100.00;102884.00;5021399;28;20052;-70
2021/11/19 02:15:42;;;;;;;16.25;7.72;;;;;;;10.74;100.00;102886.63;5023279;28;20481;-70
2021/11/19 02:18:14;;;;;;;16.63;8.50;;;;;;;10.73;100.00;102886.66;5027662;28;20046;-70
2021/11/19 02:20:46;;;;;;;14.98;7.78;;;;;;;10.77;100.00;102885.75;5029686;28;20057;-71
2021/11/19 02:23:19;;;;;;;17.13;8.38;;;;;;;10.74;100.00;102891.97;5027239;28;20547;-71
2021/11/19 02:25:53;;;;;;;21.73;7.80;;;;;;;10.77;100.00;102891.97;5024296;28;20575;-71
2021/11/19 02:28:24;;;;;;;20.65;8.23;;;;;;;10.73;100.00;102892.88;5025394;28;20049;-70
2021/11/19 02:30:56;;;;;;;19.25;7.90;;;;;;;10.76;100.00;102886.66;5028817;28;20081;-70
2021/11/19 02:33:26;;;;;;;17.65;8.23;;;;;;;10.74;100.00;102888.44;5023199;28;20107;-71
2021/11/19 02:36:05;;;;;;;13.77;7.95;;;;;;;10.74;100.00;102877.75;5028409;28;20507;-71
2021/11/19 02:38:39;;;;;;;17.98;7.28;;;;;;;10.76;100.00;102876.88;5028844;28;20498;-71
2021/11/19 02:41:08;;;;;;;;;;;;;;;10.76;100.00;102871.53;5026338;28;20041;-70
2021/11/19 02:43:39;;;;;;;17.42;8.43;;;;;;;10.78;100.00;102868.88;5026125;28;20095;-70
2021/11/19 02:46:07;;;;;;;17.30;7.60;;;;;;;10.76;100.00;102870.63;5025874;28;20053;-70
2021/11/19 02:48:37;;;;;;;20.75;8.93;;;;;;;10.80;100.00;102865.28;5029346;28;20065;-71
2021/11/19 02:51:07;;;;;;;17.20;8.82;;;;;;;10.75;100.00;102869.75;5023901;28;20111;-71
2021/11/19 02:53:35;;;;;;;19.98;8.43;;;;;;;10.74;100.00;102859.94;5021661;28;20042;-71
2021/11/19 02:56:04;;;;;;;17.52;8.55;;;;;;;10.78;100.00;102868.88;5024010;28;20054;-71
2021/11/19 02:58:36;;;;;;;18.63;7.53;;;;;;;10.79;100.00;102865.28;5030697;28;20059;-71
2021/11/19 03:01:09;;;;;;;21.17;8.63;;;;;;;10.75;100.00;102866.19;5027342;28;20065;-71
2021/11/19 03:03:39;;;;;;;23.20;8.02;;;;;;;10.75;100.00;102874.19;5024929;28;20049;-71
2021/11/19 03:06:07;;;;;;;18.45;8.65;;;;;;;10.76;100.00;102876.88;5026462;28;20053;-69
2021/11/19 03:08:36;;;;;;;17.38;7.93;;;;;;;10.77;100.00;102873.28;5023029;28;20057;-72
2021/11/19 03:11:05;;;;;;;18.90;8.98;;;;;;;10.76;100.00;102874.19;5028031;28;20053;-72
2021/11/19 03:13:38;;;;;;;19.17;8.77;;;;;;;10.77;100.00;102861.72;5025171;28;20045;-72
2021/11/19 03:16:08;;;;;;;21.38;8.65;;;;;;;10.80;100.00;102865.28;5027600;28;20564;-72
2021/11/19 03:18:36;;;;;;;23.33;9.20;;;;;;;10.77;100.00;102867.94;5028271;28;20571;-72
2021/11/19 03:21:07;;;;;;;16.02;8.38;;;;;;;10.80;100.00;102859.94;5024650;28;20049;-71
2021/11/19 03:23:36;;;;;;;18.25;7.93;;;;;;;10.84;100.00;102860.81;5025678;28;20053;-72
2021/11/19 03:26:05;;;;;;;16.80;7.55;;;;;;;10.77;100.00;102854.59;5025687;28;20140;-72
2021/11/19 03:28:35;;;;;;;17.55;7.82;;;;;;;10.80;100.00;102857.28;5028095;28;20485;-71
2021/11/19 03:31:09;;;;;;;19.33;8.43;;;;;;;10.83;100.00;102861.75;5024155;28;20058;-71
2021/11/19 03:33:38;;;;;;;;;;;;;;;10.83;100.00;102859.06;5031290;28;20146;-70
2021/11/19 03:36:07;;;;;;;15.80;8.38;;;;;;;10.82;100.00;102862.63;5025621;28;20392;-71
2021/11/19 03:38:38;;;;;;;17.55;8.20;;;;;;;10.83;100.00;102864.41;5028162;28;20093;-70
2021/11/19 03:41:08;;;;;;;25.48;8.75;;;;;;;10.79;100.00;102863.50;5025441;28;20259;-71
2021/11/19 03:43:41;;;;;;;18.92;8.30;;;;;;;10.84;100.00;102860.81;5026617;28;20084;-70
2021/11/19 03:46:13;;;;;;;19.83;8.27;;;;;;;10.80;100.00;102864.41;5026243;28;20417;-71
2021/11/19 03:48:42;;;;;;;19.00;8.50;;;;;;;10.79;100.00;102858.16;5016488;28;20343;-70
2021/11/19 03:51:18;;;;;;;24.02;9.38;;;;;;;10.86;100.00;102861.72;5027995;28;20155;-70
2021/11/19 03:53:46;;;;;;;20.95;9.10;;;;;;;10.84;100.00;102869.75;5020656;28;20084;-70
2021/11/19 03:56:14;;;;;;;22.73;10.02;;;;;;;10.84;100.00;102872.44;5028430;28;20496;-70
2021/11/19 03:58:45;;;;;;;24.10;10.70;;;;;;;10.89;100.00;102875.06;5027285;28;20049;-71
2021/11/19 04:01:18;;;;;;;23.45;9.82;;;;;;;10.88;100.00;102872.38;5024365;28;20072;-70
2021/11/19 04:03:47;;;;;;;21.77;10.38;;;;;;;10.92;100.00;102868.84;5027528;28;20061;-70
2021/11/19 04:06:17;;;;;;;25.33;11.95;;;;;;;10.89;100.00;102867.06;5025339;28;20065;-70
2021/11/19 04:08:45;;;;;;;21.75;11.55;;;;;;;10.95;100.00;102872.41;5027627;28;20497;-71
2021/11/19 04:11:14;;;;;;;21.98;11.85;;;;;;;10.95;100.00;102872.41;5021435;28;20099;-71
2021/11/19 04:13:45;;;;;;;23.45;11.15;;;;;;;10.98;100.00;102871.50;5023334;28;20104;-71
2021/11/19 04:16:26;;;;;;;21.42;11.27;;;;;;;11.04;100.00;102876.84;5026958;28;20052;-71
2021/11/19 04:18:54;;;;;;;21.38;10.60;;;;;;;11.10;100.00;102876.84;5026129;28;20045;-70
2021/11/19 04:21:22;;;;;;;21.25;10.73;;;;;;;11.08;100.00;102872.38;5025493;28;20199;-71
2021/11/19 04:23:53;;;;;;;24.73;10.90;;;;;;;11.07;100.00;102871.50;5025153;28;20065;-70
2021/11/19 04:26:22;;;;;;;22.63;10.48;;;;;;;11.11;100.00;102875.03;5025722;28;20494;-70
2021/11/19 04:28:51;;;;;;;23.55;9.18;;;;;;;11.12;100.00;102877.72;5022143;28;20138;-71
2021/11/19 04:31:19;;;;;;;23.65;9.73;;;;;;;11.11;100.00;102878.59;5026080;28;20071;-71
2021/11/19 04:33:48;;;;;;;20.08;10.18;;;;;;;11.14;100.00;102886.63;5024285;28;20140;-70
2021/11/19 04:36:17;;;;;;;21.02;9.35;;;;;;;11.18;100.00;102883.03;5022881;28;20068;-71
2021/11/19 04:38:46;;;;;;;19.33;8.88;;;;;;;11.15;100.00;102885.72;5024053;28;20049;-67
2021/11/19 04:41:15;;;;;;;25.58;9.57;;;;;;;11.15;100.00;102887.50;5021687;28;20094;-68
2021/11/19 04:43:44;;;;;;;24.38;10.55;;;;;;;11.20;100.00;102881.28;5024163;28;20076;-68
2021/11/19 04:46:14;;;;;;;21.30;9.40;;;;;;;11.19;100.00;102881.28;5021710;28;20053;-70
2021/11/19 04:48:42;;;;;;;17.05;9.32;;;;;;;11.20;100.00;102891.97;5027953;28;20056;-71
2021/11/19 04:51:13;;;;;;;23.83;9.70;;;;;;;11.18;100.00;102883.03;5022620;28;20057;-71
2021/11/19 04:53:41;;;;;;;20.20;9.00;;;;;;;11.20;100.00;102881.28;5021201;28;20061;-71
2021/11/19 04:56:09;;;;;;;21.85;9.20;;;;;;;11.20;100.00;102888.38;5024678;28;20042;-71
2021/11/19 04:58:37;;;;;;;17.75;9.05;;;;;;;11.15;100.00;102887.50;5022027;28;20505;-71
2021/11/19 05:01:13;;;;;;;19.02;9.23;;;;;;;11.19;100.00;102876.81;5025303;28;20076;-72
2021/11/19 05:03:43;;;;;;;19.80;8.85;;;;;;;11.18;100.00;102882.16;5021660;28;20049;-70
2021/11/19 05:06:11;;;;;;;18.88;8.38;;;;;;;11.19;100.00;102876.81;5023662;28;20163;-71
2021/11/19 05:08:40;;;;;;;20.48;8.40;;;;;;;11.15;100.00;102883.06;5022075;28;20055;-72
2021/11/19 05:11:13;;;;;;;16.70;8.60;;;;;;;11.18;100.00;102874.13;5024492;28;20045;-71
2021/11/19 05:13:42;;;;;;;17.17;8.82;;;;;;;11.11;100.00;102883.06;5026072;28;20098;-71
2021/11/19 05:16:13;;;;;;;15.80;7.93;;;;;;;11.08;100.00;102881.28;5022635;28;20057;-71
2021/11/19 05:18:45;;;;;;;17.58;8.20;;;;;;;11.13;100.00;102878.59;5019713;28;20041;-67
2021/11/19 05:21:15;;;;;;;18.37;7.97;;;;;;;11.09;100.00;102866.16;5023195;28;20139;-67
2021/11/19 05:23:49;;;;;;;21.15;8.43;;;;;;;11.10;100.00;102873.25;5023696;28;20520;-71
2021/11/19 05:26:18;;;;;;;19.52;8.68;;;;;;;11.09;100.00;102875.03;5021336;28;20053;-71
2021/11/19 05:28:45;;;;;;;20.48;8.43;;;;;;;11.10;100.00;102875.91;5023900;28;20103;-70
2021/11/19 05:31:15;;;;;;;17.33;7.38;;;;;;;11.05;100.00;102872.38;5025942;28;20052;-68
2021/11/19 05:33:44;;;;;;;22.83;7.80;;;;;;;11.09;100.00;102874.16;5019035;28;20384;-71
2021/11/19 05:36:13;;;;;;;16.70;7.55;;;;;;;11.07;100.00;102878.59;5022540;28;20064;-71
2021/11/19 05:38:41;;;;;;;15.75;7.25;;;;;;;11.08;100.00;102883.06;5024153;28;20064;-67
2021/11/19 05:41:12;;;;;;;21.27;7.47;;;;;;;11.07;100.00;102883.94;5024119;28;20098;-71
2021/11/19 05:43:43;;;;;;;18.05;8.00;;;;;;;11.06;100.00;102880.38;5021933;28;20196;-71
2021/11/19 05:46:12;;;;;;;16.58;7.28;;;;;;;11.03;100.00;102885.72;5022489;28;20128;-72
2021/11/19 05:48:40;;;;;;;16.08;7.22;;;;;;;11.10;100.00;102879.50;5024527;28;20512;-72
2021/11/19 05:51:10;;;;;;;15.73;7.50;;;;;;;11.03;100.00;102889.31;5020895;28;20068;-72
2021/11/19 05:53:38;;;;;;;20.60;6.90;;;;;;;11.09;100.00;102885.72;5024727;28;20119;-68
2021/11/19 05:56:06;;;;;;;15.90;7.07;;;;;;;11.07;100.00;102889.28;5024574;28;20239;-72
2021/11/19 05:58:34;;;;;;;18.40;6.63;;;;;;;11.03;100.00;102885.72;5030287;28;20175;-72
2021/11/19 06:01:05;;;;;;;16.35;7.05;;;;;;;11.07;100.00;102886.59;5026168;28;20482;-72
2021/11/19 06:03:34;;;;;;;20.63;7.10;;;;;;;11.07;100.00;102889.28;5029744;28;20527;-72
2021/11/19 06:06:02;;;;;;;12.38;5.85;;;;;;;11.08;100.00;102894.63;5024870;28;20132;-72
2021/11/19 06:08:33;;;;;;;13.85;5.88;;;;;;;11.10;100.00;102887.53;5032755;28;20056;-72
2021/11/19 06:11:07;;;;;;;18.95;6.15;;;;;;;11.15;100.00;102892.84;5028070;28;20049;-72
2021/11/19 06:13:39;;;;;;;16.00;6.47;;;;;;;11.08;100.00;102891.94;5025134;28;20122;-72
2021/11/19 06:16:16;;;;;;;23.70;6.13;;;;;;;11.08;100.00;102889.28;5028114;28;20072;-72
2021/11/19 06:18:49;;;;;;;15.60;6.25;;;;;;;11.07;100.00;102894.63;5023808;28;20089;-73
2021/11/19 06:21:20;;;;;;;16.25;6.32;;;;;;;11.05;100.00;102902.66;5026690;28;20048;-72
2021/11/19 06:23:52;;;;;;;16.20;5.78;;;;;;;11.03;100.00;102901.75;5023346;28;20060;-72
2021/11/19 06:26:23;;;;;;;13.73;4.95;;;;;;;11.06;100.00;102896.41;5032024;28;20095;-71
2021/11/19 06:28:53;;;;;;;18.48;5.63;;;;;;;11.03;100.00;102893.75;5025064;28;20156;-72
2021/11/19 06:31:23;;;;;;;16.58;5.75;;;;;;;11.01;100.00;102899.09;5028004;28;20568;-71
2021/11/19 06:33:53;;;;;;;16.63;5.72;;;;;;;11.03;100.00;102899.09;5027951;28;20063;-71
2021/11/19 06:36:21;;;;;;;16.50;5.90;;;;;;;10.98;100.00;102904.47;5025783;28;20133;-70
2021/11/19 06:38:52;;;;;;;12.65;5.63;;;;;;;10.99;100.00;102905.34;5027910;28;20103;-71
2021/11/19 06:41:22;;;;;;;12.73;5.80;;;;;;;11.00;100.00;102907.13;5027263;28;20051;-73
2021/11/19 06:43:51;;;;;;;15.35;5.60;;;;;;;11.03;100.00;102900.00;5028262;28;20254;-72
2021/11/19 06:46:21;;;;;;;11.75;5.43;;;;;;;11.08;100.00;102904.44;5029038;28;20092;-72
2021/11/19 06:48:49;;;;;;;19.65;5.95;;;;;;;11.05;100.00;102901.75;5023218;28;20482;-72
2021/11/19 06:51:19;;;;;;;16.15;6.10;;;;;;;10.97;100.00;102909.81;5027214;28;20057;-71
2021/11/19 06:53:48;;;;;;;10.85;5.53;;;;;;;10.93;100.00;102906.25;5022397;28;20056;-70
2021/11/19 06:56:18;;;;;;;14.90;5.57;;;;;;;10.92;100.00;102909.78;5028851;28;20135;-71
2021/11/19 06:58:47;;;;;;;11.80;6.15;;;;;;;10.90;100.00;102913.38;5025145;28;20675;-71
2021/11/19 07:01:15;;;;;;;15.25;5.80;;;;;;;10.90;100.00;102922.25;5027126;28;20068;-72
2021/11/19 07:03:45;;;;;;;10.32;4.50;;;;;;;10.86;100.00;102923.13;5026292;28;20053;-72
2021/11/19 07:06:13;;;;;;;13.00;5.30;;;;;;;10.84;100.00;102920.50;5026502;28;20045;-72
2021/11/19 07:08:42;;;;;;;18.65;6.25;;;;;;;10.87;100.00;102919.59;5027630;28;20048;-73
2021/11/19 07:11:15;;;;;;;16.40;5.25;;;;;;;10.80;100.00;102928.50;5021799;28;20069;-73
2021/11/19 07:13:48;;;;;;;13.85;5.28;;;;;;;10.78;100.00;102935.63;5024809;28;20057;-73
2021/11/19 07:16:20;;;;;;;12.00;4.90;;;;;;;10.80;100.00;102937.38;5025338;28;20056;-72
2021/11/19 07:18:49;;;;;;;17.55;5.57;;;;;;;10.81;100.00;102941.84;5028333;28;20068;-72
2021/11/19 07:21:17;;;;;;;15.45;5.03;;;;;;;10.78;100.00;102941.84;5028720;28;20057;-72
2021/11/19 07:23:46;;;;;;;10.48;4.35;;;;;;;10.78;100.00;102940.97;5023013;28;20049;-72
2021/11/19 07:26:15;;;;;;;10.10;4.47;;;;;;;10.79;100.00;102942.72;5025871;28;20078;-72
2021/11/19 07:28:45;;;;;;;11.85;5.43;;;;;;;10.81;100.00;102941.84;5022221;28;20045;-71
2021/11/19 07:31:17;;;;;;;12.47;4.83;;;;;;;10.79;100.00;102938.25;5024903;28;20045;-71
2021/11/19 07:33:46;;;;;;;9.68;4.45;;;;;;;10.78;100.00;102940.97;5022320;28;20310;-72
2021/11/19 07:36:15;;;;;;;12.88;4.57;;;;;;;10.80;100.00;102953.41;5021692;28;20553;-72
2021/11/19 07:38:44;;;;;;;14.70;5.65;;;;;;;10.84;100.00;102951.63;5023648;28;20308;-72
2021/11/19 07:41:15;;;;;;;10.77;5.10;;;;;;;10.81;100.00;102952.53;5026225;28;20052;-71
2021/11/19 07:43:44;;;;;;;15.80;6.47;;;;;;;10.80;100.00;102958.75;5022752;28;20053;-68
2021/11/19 07:46:15;;;;;;;12.63;6.35;;;;;;;10.84;100.00;102957.88;5028469;28;20445;-68
2021/11/19 07:48:44;;;;;;;14.32;6.53;;;;;;;10.82;100.00;102956.09;5021095;28;20042;-68
2021/11/19 07:51:22;;;;;;;16.65;6.07;;;;;;;10.81;100.00;102962.31;5023751;28;20053;-67
2021/11/19 07:53:51;;;;;;;21.17;7.00;;;;;;;10.84;100.00;102971.25;5022496;28;20048;-68
2021/11/19 07:56:23;;;;;;;16.13;6.10;;;;;;;10.82;100.00;102970.31;5023867;28;20128;-67
2021/11/19 07:58:54;;;;;;;13.75;5.93;;;;;;;10.85;100.00;102974.78;5021999;28;20076;-67
2021/11/19 08:01:22;;;;;;;17.83;6.88;;;;;;;10.89;100.00;102983.69;5026616;28;20057;-67
2021/11/19 08:03:50;;;;;;;14.88;5.93;;;;;;;10.88;100.00;102976.56;5023416;28;20136;-67
2021/11/19 08:06:18;;;;;;;11.75;5.65;;;;;;;10.88;100.00;102974.81;5024955;28;20140;-67
2021/11/19 08:08:49;;;;;;;13.00;5.55;;;;;;;10.93;100.00;102969.44;5022952;28;20672;-70
2021/11/19 08:11:17;;;;;;;11.75;5.30;;;;;;;10.95;100.00;102976.56;5026167;28;20080;-67
2021/11/19 08:13:45;;;;;;;12.30;5.38;;;;;;;10.96;100.00;102973.00;5019022;28;20154;-72
2021/11/19 08:16:15;;;;;;;14.80;5.97;;;;;;;10.99;100.00;102969.44;5026500;28;20044;-72
2021/11/19 08:18:47;;;;;;;13.55;4.72;;;;;;;10.99;100.00;102981.00;5029326;28;20091;-72
2021/11/19 08:21:16;;;;;;;16.45;6.05;;;;;;;11.03;100.00;102981.91;5024090;28;20198;-72
2021/11/19 08:23:48;;;;;;;12.25;5.05;;;;;;;11.06;100.00;102973.00;5024821;28;20053;-72
2021/11/19 08:26:24;;;;;;;12.23;5.03;;;;;;;11.10;100.00;102978.38;5023180;28;20051;-72
2021/11/19 08:28:52;;;;;;;12.13;5.10;;;;;;;11.13;100.00;102985.47;5027215;28;20123;-70
2021/11/19 08:31:24;;;;;;;14.95;4.95;;;;;;;11.17;100.00;102974.78;5023256;28;20056;-70
2021/11/19 08:33:52;;;;;;;10.98;4.40;;;;;;;11.18;100.00;102981.91;5028535;28;20049;-71
2021/11/19 08:36:23;;;;;;;14.15;5.15;;;;;;;11.19;100.00;102975.69;5024903;28;20053;-71
2021/11/19 08:38:51;;;;;;;12.35;4.90;;;;;;;11.25;100.00;102976.56;5030292;28;20480;-70
2021/11/19 08:41:20;;;;;;;13.73;5.45;;;;;;;11.27;100.00;102969.44;5023934;28;22943;-69
2021/11/19 08:43:50;;;;;;;11.88;5.28;;;;;;;11.32;100.00;102967.63;5028327;28;20053;-68
2021/11/19 08:46:23;;;;;;;11.60;5.50;;;;;;;11.33;100.00;102977.44;5026262;28;20074;-68
2021/11/19 08:48:51;;;;;;;13.13;5.40;;;;;;;11.39;100.00;102980.09;5023099;28;20057;-67
2021/11/19 08:51:21;;;;;;;13.38;4.97;;;;;;;11.42;100.00;102980.09;5026312;28;20050;-70
2021/11/19 08:53:51;;;;;;;17.17;5.55;;;;;;;11.44;100.00;102985.44;5016951;28;20053;-71
2021/11/19 08:56:36;;;;;;;15.45;5.57;;;;;;;11.51;100.00;102993.47;5027824;28;20064;-68
2021/11/19 08:59:06;;;;;;;11.55;5.20;;;;;;;11.56;100.00;102986.31;5024162;28;20057;-68
2021/11/19 09:01:36;;;;;;;20.85;5.57;;;;;;;11.55;100.00;102991.66;5026676;28;20076;-69
2021/11/19 09:04:05;;;;;;;11.85;4.90;;;;;;;11.57;100.00;102995.22;5024031;28;20112;-69
2021/11/19 09:06:34;;;;;;;15.80;5.82;;;;;;;11.46;100.00;102989.91;5025366;28;20127;-69
2021/11/19 09:09:04;;;;;;;14.00;5.28;;;;;;;11.42;100.00;102990.78;5027157;28;20310;-71
2021/11/19 09:11:33;;;;;;;11.65;5.00;;;;;;;11.44;100.00;102997.03;5018454;28;20076;-69
2021/11/19 09:14:03;;;;;;;12.80;6.03;;;;;;;11.42;100.00;102993.47;5019157;28;20158;-70
2021/11/19 09:16:35;;;;;;;13.15;6.55;;;;;;;11.41;100.00;102994.38;5022873;28;20359;-70
2021/11/19 09:19:14;;;;;;;12.15;5.63;;;;;;;11.36;100.00;102996.16;5026343;28;20045;-68
2021/11/19 09:21:47;;;;;;;13.10;6.68;;;;;;;11.36;100.00;103001.50;5020788;28;20128;-67
2021/11/19 09:24:18;;;;;;;12.30;6.00;;;;;;;11.31;100.00;103006.84;5024095;28;20095;-67
2021/11/19 09:26:49;;;;;;;13.18;6.07;;;;;;;11.30;100.00;103004.16;5022380;28;20045;-69
2021/11/19 09:29:20;;;;;;;16.48;9.15;;;;;;;11.37;100.00;102996.16;5019131;28;20060;-69
2021/11/19 09:31:50;;;;;;;11.45;6.03;;;;;;;11.36;100.00;102998.84;5021883;28;20059;-69
2021/11/19 09:34:20;;;;;;;12.15;5.28;;;;;;;11.38;100.00;103002.38;5019971;28;20087;-71
2021/11/19 09:36:48;;;;;;;14.25;5.00;;;;;;;11.45;100.00;103000.59;5024459;28;20080;-70
2021/11/19 09:39:18;;;;;;;12.25;5.03;;;;;;;11.49;100.00;103000.59;5022847;28;20049;-70
2021/11/19 09:41:51;;;;;;;10.30;5.00;;;;;;;11.45;100.00;102998.81;5021328;28;20521;-73
2021/11/19 09:44:55;;;;;;;11.13;4.90;;;;;;;11.49;100.00;102997.00;5025271;28;20045;-71
2021/11/19 09:47:50;;;;;;;11.65;4.53;;;;;;;11.56;100.00;103004.13;5010839;28;20053;-71
2021/11/19 09:50:57;;;;;;;13.10;4.88;;;;;;;11.64;100.00;103007.69;5024980;28;20231;-71
2021/11/19 09:54:13;;;;;;;9.55;3.97;;;;;;;11.82;100.00;102997.84;5018721;28;20175;-71
2021/11/19 09:56:54;;;;;;;12.00;4.60;;;;;;;11.89;100.00;102997.81;5024366;28;20053;-71
2021/11/19 09:59:32;;;;;;;13.68;5.45;;;;;;;11.83;100.00;103003.16;5026963;28;20053;-71
2021/11/19 10:02:32;;;;;;;14.05;4.95;;;;;;;12.00;100.00;103007.63;5023842;28;20049;-71
2021/11/19 10:05:24;;;;;;;12.63;4.32;;;;;;;12.32;100.00;103011.03;5019334;28;20445;-71
2021/11/19 10:08:04;;;;;;;10.38;4.32;;;;;;;12.39;100.00;103019.06;5023624;28;20142;-71
2021/11/19 10:10:38;;;;;;;10.75;4.10;;;;;;;12.46;100.00;103013.69;5018240;28;20251;-71
2021/11/19 10:13:18;;;;;;;11.05;5.03;;;;;;;12.41;100.00;103015.50;5012356;28;20053;-72
2021/11/19 10:15:51;;;;;;;9.35;4.45;;;;;;;12.32;100.00;103028.91;5022613;28;20056;-71
2021/11/19 10:18:27;;;;;;;19.67;4.65;;;;;;;12.22;100.00;103006.63;5022766;28;20056;-72
2021/11/19 10:21:04;;;;;;;12.68;4.15;;;;;;;12.18;100.00;103009.34;5020593;28;20219;-71
2021/11/19 10:23:56;;;;;;;10.50;4.38;;;;;;;12.43;100.00;103016.38;5025535;28;20068;-73
2021/11/19 10:26:32;;;;;;;10.30;4.85;;;;;;;12.56;100.00;103016.28;5020081;28;20115;-73
2021/11/19 10:29:07;;;;;;;12.48;4.80;;;;;;;12.67;100.00;103009.97;5023206;28;20045;-73
2021/11/19 10:31:35;;;;;;;15.05;5.97;;;;;;;12.81;100.00;103004.50;5023584;28;20053;-73
2021/11/19 10:34:16;;;;;;;12.63;5.72;;;;;;;12.96;100.00;103013.34;5025515;28;20056;-73
2021/11/19 10:36:58;;;;;;;10.55;4.85;;;;;;;12.80;100.00;103002.72;5023358;28;20611;-67
2021/11/19 10:40:02;;;;;;;11.10;4.95;;;;;;;12.71;100.00;103005.47;5021274;28;20053;-68
2021/11/19 10:43:00;;;;;;;7.90;3.40;;;;;;;12.70;100.00;103004.59;5024415;28;20068;-68
2021/11/19 10:46:11;;;;;;;10.07;3.45;;;;;;;12.93;100.00;102997.31;5026841;28;20055;-68
2021/11/19 10:49:02;;;;;;;9.75;4.45;;;;;;;12.87;100.00;102992.84;5023936;28;20072;-68
2021/11/19 10:52:05;;;;;;;8.82;3.45;;;;;;;12.99;100.00;102999.91;5024310;28;20072;-68
2021/11/19 10:55:10;;;;;;;11.50;3.53;;;;;;;12.82;100.00;103000.94;5022848;28;20054;-68
2021/11/19 10:58:12;;;;;;;9.68;3.78;;;;;;;12.94;100.00;102996.38;5028644;28;20149;-67
2021/11/19 11:01:01;;;;;;;10.15;3.80;;;;;;;12.84;100.00;102998.25;5025138;28;20125;-68
2021/11/19 11:03:33;;;;;;;8.65;3.97;;;;;;;12.80;100.00;103005.41;5027148;28;20064;-68
2021/11/19 11:06:09;;;;;;;10.88;3.40;;;;;;;12.73;100.00;103008.16;5023878;28;20607;-68
2021/11/19 11:08:39;;;;;;;10.65;3.20;;;;;;;12.65;100.00;103001.06;5026996;28;20471;-67
2021/11/19 11:11:12;;;;;;;11.50;3.83;;;;;;;12.65;100.00;103001.06;5023134;28;20048;-69
2021/11/19 11:13:56;;;;;;;10.57;3.67;;;;;;;12.86;100.00;103001.81;5021988;28;20057;-68
2021/11/19 11:16:28;;;;;;;10.27;3.75;;;;;;;13.00;100.00;103001.69;5024515;28;20045;-68
2021/11/19 11:18:58;;;;;;;7.25;3.30;;;;;;;13.12;100.00;103011.44;5020971;28;20300;-69
2021/11/19 11:21:31;;;;;;;7.78;3.47;;;;;;;13.32;100.00;103005.94;5028298;28;20235;-68
2021/11/19 11:24:17;;;;;;;9.57;3.47;;;;;;;13.38;98.68;103004.09;5025884;28;20045;-71
2021/11/19 11:26:51;;;;;;;12.57;3.60;;;;;;;13.59;98.46;103002.09;5026556;28;20060;-72
2021/11/19 11:29:34;;;;;;;9.77;3.78;;;;;;;13.61;96.96;103011.91;5024252;28;20161;-71
2021/11/19 11:32:15;;;;;;;9.93;3.80;;;;;;;13.61;96.39;103003.84;5026819;28;21785;-72
2021/11/19 11:35:00;;;;;;;8.25;3.30;;;;;;;13.61;97.38;103011.91;5027623;28;20115;-73